Time;durP1;ratioP1;P1;durP2;ratioP2;P2;SDS_P1;SDS_P2;PMS_P1;PMS_P2;Temp;Humidity;BMP_temperature;BMP_pressure;BME280_temperature;BME280_humidity;BME280_pressure;Samples;Min_cycle;Max_cycle;Signal;HPM_P1;HPM_P2
2021/05/16 00:01:04;;;;;;;6.78;2.75;;;;;;;12.68;64.93;96138.00;5003983;28;20095;-83
2021/05/16 00:03:29;;;;;;;6.50;1.95;;;;;;;12.71;64.46;96136.63;4992595;28;20110;-82
2021/05/16 00:05:54;;;;;;;4.25;1.38;;;;;;;12.55;65.06;96139.44;4964346;28;20106;-82
2021/05/16 00:08:20;;;;;;;4.28;1.55;;;;;;;12.65;64.51;96132.56;4971972;28;20045;-83
2021/05/16 00:10:45;;;;;;;6.30;2.40;;;;;;;12.73;64.63;96139.72;4957153;28;20477;-82
2021/05/16 00:13:11;;;;;;;4.78;1.77;;;;;;;12.73;64.47;96139.72;4969111;28;20029;-82
2021/05/16 00:15:38;;;;;;;6.57;1.95;;;;;;;12.71;64.38;96137.44;4973110;28;20356;-82
2021/05/16 00:18:04;;;;;;;3.53;1.65;;;;;;;12.80;64.36;96134.16;4973435;28;20405;-82
2021/05/16 00:20:31;;;;;;;5.38;2.30;;;;;;;12.70;64.37;96133.25;5013907;28;20025;-82
2021/05/16 00:22:57;;;;;;;3.45;1.77;;;;;;;12.74;64.58;96128.22;4997642;28;20033;-82
2021/05/16 00:25:23;;;;;;;4.35;1.73;;;;;;;12.73;64.83;96130.06;5013392;28;20044;-82
2021/05/16 00:27:49;;;;;;;5.45;2.17;;;;;;;12.76;64.06;96126.09;4997228;28;20038;-82
2021/05/16 00:30:17;;;;;;;4.57;1.13;;;;;;;12.63;64.08;96111.94;5014019;28;20040;-83
2021/05/16 00:32:43;;;;;;;3.00;1.25;;;;;;;12.77;63.89;96119.06;5013622;28;20032;-81
2021/05/16 00:35:10;;;;;;;4.47;1.20;;;;;;;12.70;64.24;96127.25;4994540;28;20033;-81
2021/05/16 00:37:36;;;;;;;4.43;1.67;;;;;;;12.71;64.08;96123.56;4961363;28;20037;-82
2021/05/16 00:40:03;;;;;;;4.72;1.35;;;;;;;12.51;64.62;96117.59;4972976;28;20482;-81
2021/05/16 00:42:28;;;;;;;6.35;1.45;;;;;;;12.64;64.62;96115.31;5003514;28;20037;-81
2021/05/16 00:45:03;;;;;;;5.38;1.45;;;;;;;12.37;65.02;96111.50;4985377;28;20029;-82
2021/05/16 00:47:29;;;;;;;3.78;1.55;;;;;;;12.68;64.46;96113.69;5028881;28;20254;-81
2021/05/16 00:49:55;;;;;;;4.35;1.10;;;;;;;12.62;64.65;96113.00;4995838;28;20132;-81
2021/05/16 00:52:25;;;;;;;4.30;1.10;;;;;;;12.69;64.68;96107.41;4979448;28;20033;-80
2021/05/16 00:54:54;;;;;;;5.78;1.67;;;;;;;12.70;64.15;96108.97;4987506;28;20118;-81
2021/05/16 00:57:19;;;;;;;2.90;1.33;;;;;;;12.77;64.44;96109.38;4983488;28;20103;-81
2021/05/16 00:59:45;;;;;;;5.05;1.10;;;;;;;12.74;64.24;96115.94;4959594;28;20033;-81
2021/05/16 01:02:10;;;;;;;4.13;1.08;;;;;;;12.73;64.50;96103.16;4997391;28;20416;-81
2021/05/16 01:04:37;;;;;;;1.20;0.90;;;;;;;12.72;64.31;96107.63;4973241;28;20377;-82
2021/05/16 01:07:03;;;;;;;2.13;1.13;;;;;;;12.64;64.50;96110.09;5003191;28;20278;-81
2021/05/16 01:09:28;;;;;;;3.42;0.80;;;;;;;12.78;64.25;96100.47;4980291;28;20045;-81
2021/05/16 01:11:54;;;;;;;1.73;0.82;;;;;;;12.78;64.24;96105.69;4993834;28;20033;-81
2021/05/16 01:14:31;;;;;;;2.17;0.80;;;;;;;12.72;64.16;96101.63;4999913;28;20104;-81
2021/05/16 01:16:58;;;;;;;3.47;0.80;;;;;;;12.77;64.25;96114.63;4977337;28;20044;-81
2021/05/16 01:19:24;;;;;;;3.45;0.80;;;;;;;12.79;64.08;96112.50;4979011;28;20038;-81
2021/05/16 01:21:53;;;;;;;2.78;0.90;;;;;;;12.79;64.06;96107.25;4973914;28;20544;-81
2021/05/16 01:24:21;;;;;;;4.38;1.08;;;;;;;12.67;64.52;96106.94;4977473;28;20036;-81
2021/05/16 01:26:50;;;;;;;3.78;0.80;;;;;;;12.69;64.52;96102.19;4961845;28;20025;-81
2021/05/16 01:29:18;;;;;;;2.58;0.63;;;;;;;12.76;64.06;96100.00;4993972;28;20037;-81
2021/05/16 01:31:44;;;;;;;2.22;0.70;;;;;;;12.73;64.19;96092.72;4963261;28;20022;-81
2021/05/16 01:34:11;;;;;;;1.50;0.70;;;;;;;12.80;64.42;96105.41;4992538;28;20519;-81
2021/05/16 01:36:37;;;;;;;3.05;0.80;;;;;;;12.80;64.00;96106.22;4983542;28;20026;-81
2021/05/16 01:39:11;;;;;;;2.97;0.70;;;;;;;12.79;64.08;96103.88;5009588;28;20033;-81
2021/05/16 01:41:38;;;;;;;1.93;0.87;;;;;;;12.80;63.98;96103.59;4977485;28;20041;-81
2021/05/16 01:44:11;;;;;;;3.30;1.33;;;;;;;12.87;64.03;96105.84;4966992;28;20060;-81
2021/05/16 01:46:38;;;;;;;4.22;0.60;;;;;;;12.74;64.22;96102.13;4994568;28;20052;-82
2021/05/16 01:49:06;;;;;;;1.83;0.77;;;;;;;12.83;64.41;96104.84;4967760;28;20065;-81
2021/05/16 01:51:31;;;;;;;1.40;0.60;;;;;;;12.83;64.32;96105.63;4977740;28;20546;-81
2021/05/16 01:53:57;;;;;;;1.30;0.68;;;;;;;12.88;64.06;96108.16;5027444;28;20352;-81
2021/05/16 01:56:28;;;;;;;2.67;0.70;;;;;;;12.70;64.28;96093.31;4975440;28;20104;-80
2021/05/16 01:58:56;;;;;;;1.85;0.60;;;;;;;12.76;64.54;96097.38;4971223;28;20056;-81
2021/05/16 02:01:23;;;;;;;2.38;0.63;;;;;;;12.86;64.28;96096.47;5010078;28;20044;-81
2021/05/16 02:03:50;;;;;;;2.92;0.70;;;;;;;12.90;63.72;96093.00;4969044;28;20065;-82
2021/05/16 02:06:16;;;;;;;2.40;0.93;;;;;;;12.92;63.91;96096.09;4977836;28;20366;-81
2021/05/16 02:08:43;;;;;;;2.83;0.88;;;;;;;12.90;64.70;96102.66;4987749;28;20046;-82
2021/05/16 02:11:09;;;;;;;2.53;0.68;;;;;;;12.97;63.87;96099.69;4977015;28;20029;-81
2021/05/16 02:13:38;;;;;;;1.98;0.77;;;;;;;12.82;64.34;96098.88;5007304;28;20120;-81
2021/05/16 02:16:05;;;;;;;2.55;0.82;;;;;;;12.92;64.60;96090.09;4984956;28;20397;-81
2021/05/16 02:18:31;;;;;;;1.48;0.57;;;;;;;13.01;64.09;96098.81;4978489;28;20064;-81
2021/05/16 02:20:58;;;;;;;2.67;0.90;;;;;;;12.84;64.46;96086.28;4994627;28;20029;-82
2021/05/16 02:23:25;;;;;;;4.82;0.80;;;;;;;12.91;64.27;96089.31;4994881;28;20108;-82
2021/05/16 02:25:52;;;;;;;1.88;0.75;;;;;;;12.96;64.48;96106.75;4975126;28;20021;-81
2021/05/16 02:28:18;;;;;;;5.53;1.35;;;;;;;12.89;64.88;96093.28;4978573;28;20087;-81
2021/05/16 02:30:45;;;;;;;2.10;1.00;;;;;;;12.95;65.03;96096.56;5011810;28;20179;-81
2021/05/16 02:33:11;;;;;;;2.25;1.08;;;;;;;12.99;64.56;96094.94;5011916;28;20108;-81
2021/05/16 02:35:37;;;;;;;2.95;0.90;;;;;;;13.04;64.91;96100.88;4978456;28;20033;-81
2021/05/16 02:38:04;;;;;;;1.48;1.13;;;;;;;12.97;64.73;96097.06;4995022;28;20030;-81
2021/05/16 02:40:30;;;;;;;3.88;0.80;;;;;;;13.06;64.51;96090.13;4969702;28;20030;-82
2021/05/16 02:42:57;;;;;;;2.10;1.10;;;;;;;13.03;64.84;96081.03;4971014;28;20044;-81
2021/05/16 02:45:23;;;;;;;3.10;1.23;;;;;;;13.10;64.57;96083.25;4993896;28;20064;-81
2021/05/16 02:47:50;;;;;;;2.90;1.45;;;;;;;13.14;64.70;96092.06;4973494;28;20033;-81
2021/05/16 02:50:17;;;;;;;3.10;1.10;;;;;;;13.02;64.80;96087.31;4987640;28;20038;-81
2021/05/16 02:52:44;;;;;;;2.63;1.02;;;;;;;13.05;64.68;96085.97;4994031;28;20048;-81
2021/05/16 02:55:13;;;;;;;2.72;1.00;;;;;;;13.03;65.16;96091.47;4990654;28;20029;-80
2021/05/16 02:57:39;;;;;;;1.40;1.05;;;;;;;13.09;65.48;96089.53;4995143;28;20565;-81
2021/05/16 03:00:06;;;;;;;1.63;0.80;;;;;;;13.16;65.23;96091.78;4978471;28;20048;-81
2021/05/16 03:02:33;;;;;;;1.73;1.08;;;;;;;13.07;65.03;96081.22;4978740;28;20542;-81
2021/05/16 03:04:58;;;;;;;1.60;0.93;;;;;;;13.13;65.27;96084.53;5011363;28;20021;-78
2021/05/16 03:07:24;;;;;;;2.50;1.25;;;;;;;13.21;64.88;96087.28;4994640;28;20051;-80
2021/05/16 03:09:49;;;;;;;2.80;1.00;;;;;;;13.15;65.34;96083.19;4981652;28;20029;-81
2021/05/16 03:12:14;;;;;;;2.83;1.00;;;;;;;13.13;64.58;96068.88;5008523;28;20568;-81
2021/05/16 03:14:40;;;;;;;3.97;1.23;;;;;;;13.14;65.53;96071.16;4978036;28;20030;-80
2021/05/16 03:17:05;;;;;;;3.45;0.80;;;;;;;13.25;65.03;96069.16;5010855;28;20033;-82
2021/05/16 03:19:32;;;;;;;1.42;1.00;;;;;;;13.26;65.07;96068.88;4994964;28;20523;-82
2021/05/16 03:21:59;;;;;;;1.70;1.10;;;;;;;13.30;64.90;96075.06;5009657;28;20029;-82
2021/05/16 03:24:25;;;;;;;2.47;1.20;;;;;;;13.09;65.70;96077.28;4966956;28;20100;-81
2021/05/16 03:26:50;;;;;;;2.15;1.15;;;;;;;13.18;65.28;96072.16;4986906;28;20029;-80
2021/05/16 03:29:16;;;;;;;5.38;1.70;;;;;;;13.22;64.92;96070.50;4989457;28;20072;-81
2021/05/16 03:31:41;;;;;;;2.40;0.80;;;;;;;13.28;65.32;96082.44;4994747;28;20040;-81
2021/05/16 03:34:07;;;;;;;1.73;1.13;;;;;;;13.35;64.49;96076.06;5011325;28;20033;-81
2021/05/16 03:36:33;;;;;;;1.27;0.90;;;;;;;13.33;64.68;96078.19;4995287;28;20358;-80
2021/05/16 03:38:59;;;;;;;2.38;1.00;;;;;;;13.29;64.78;96078.75;4985715;28;20089;-80
2021/05/16 03:41:24;;;;;;;2.88;0.95;;;;;;;13.33;65.00;96083.44;4994896;28;20029;-81
2021/05/16 03:43:50;;;;;;;2.45;0.90;;;;;;;13.35;64.86;96086.53;4993684;28;20034;-81
2021/05/16 03:46:16;;;;;;;2.08;0.73;;;;;;;13.28;64.56;96082.44;4994542;28;20061;-81
2021/05/16 03:48:41;;;;;;;1.13;0.80;;;;;;;13.30;64.74;96084.75;4998722;28;20029;-80
2021/05/16 03:51:10;;;;;;;1.60;0.90;;;;;;;13.39;64.96;96090.91;4989108;28;20048;-79
2021/05/16 03:53:37;;;;;;;1.00;0.88;;;;;;;13.25;64.72;96077.78;4981739;28;20033;-81
2021/05/16 03:56:05;;;;;;;2.28;1.00;;;;;;;13.31;64.89;96088.91;5014783;28;20030;-81
2021/05/16 03:58:30;;;;;;;2.42;1.13;;;;;;;13.14;65.11;96086.84;4981983;28;20053;-81
2021/05/16 04:00:57;;;;;;;3.28;1.58;;;;;;;13.26;65.00;96079.34;4998447;28;20469;-81
2021/05/16 04:03:23;;;;;;;3.47;1.23;;;;;;;13.29;64.59;96081.34;4998529;28;20068;-81
2021/05/16 04:05:51;;;;;;;2.97;1.70;;;;;;;13.32;64.69;96079.28;4999146;28;20037;-80
2021/05/16 04:08:16;;;;;;;2.38;1.50;;;;;;;13.33;64.80;96083.44;4996082;28;20079;-81
2021/05/16 04:10:41;;;;;;;3.67;1.77;;;;;;;13.38;64.94;96091.19;4997696;28;20022;-82
2021/05/16 04:13:07;;;;;;;3.97;2.40;;;;;;;13.33;64.68;96083.44;5014355;28;20086;-81
2021/05/16 04:15:32;;;;;;;4.03;1.50;;;;;;;13.36;64.64;96082.84;4997545;28;20554;-81
2021/05/16 04:17:58;;;;;;;2.85;1.90;;;;;;;13.37;64.73;96079.19;4981262;28;20030;-81
2021/05/16 04:20:23;;;;;;;2.83;1.67;;;;;;;13.35;64.78;96076.06;4981291;28;20032;-81
2021/05/16 04:22:49;;;;;;;5.05;1.65;;;;;;;13.28;65.03;96084.25;5013793;28;20029;-80
2021/05/16 04:25:14;;;;;;;3.67;1.38;;;;;;;13.40;64.87;96087.22;4982072;28;20037;-81
2021/05/16 04:27:40;;;;;;;2.88;1.38;;;;;;;13.43;64.38;96084.00;4997434;28;20025;-80
2021/05/16 04:30:06;;;;;;;3.80;1.70;;;;;;;13.33;64.89;96075.59;4981166;28;20033;-80
2021/05/16 04:32:31;;;;;;;3.72;1.52;;;;;;;13.30;64.75;96079.53;5007731;28;20036;-82
2021/05/16 04:34:57;;;;;;;4.40;1.67;;;;;;;13.37;64.40;96082.56;4981084;28;20460;-81
2021/05/16 04:37:22;;;;;;;3.00;1.92;;;;;;;13.17;65.34;96081.03;4974324;28;20029;-81
2021/05/16 04:39:50;;;;;;;4.63;1.45;;;;;;;13.24;65.25;96073.59;5013732;28;20030;-81
2021/05/16 04:42:15;;;;;;;2.67;1.20;;;;;;;13.22;65.41;96090.66;5014351;28;20059;-81
2021/05/16 04:44:40;;;;;;;2.65;1.25;;;;;;;13.34;64.51;96090.97;4995707;28;20039;-81
2021/05/16 04:47:06;;;;;;;2.83;1.17;;;;;;;13.40;64.87;96087.22;4994567;28;20463;-82
2021/05/16 04:49:32;;;;;;;4.05;1.40;;;;;;;13.33;64.32;96086.03;4997210;28;20644;-80
2021/05/16 04:51:57;;;;;;;2.53;1.40;;;;;;;13.14;65.31;96089.47;4981318;28;20064;-81
2021/05/16 04:54:23;;;;;;;2.45;1.23;;;;;;;13.20;64.91;96090.94;5012648;28;20476;-81
2021/05/16 04:56:48;;;;;;;2.42;1.00;;;;;;;13.37;64.83;96100.09;4996954;28;20033;-80
2021/05/16 04:59:14;;;;;;;1.70;1.23;;;;;;;13.32;64.55;96090.50;4996306;28;20500;-80
2021/05/16 05:01:40;;;;;;;2.25;1.30;;;;;;;13.43;64.34;96093.72;5011950;28;20041;-79
2021/05/16 05:04:06;;;;;;;4.57;1.20;;;;;;;13.36;64.65;96098.53;4995662;28;20079;-80
2021/05/16 05:06:31;;;;;;;2.63;1.70;;;;;;;13.37;65.03;96095.66;5009046;28;20038;-80
2021/05/16 05:08:59;;;;;;;6.10;1.60;;;;;;;13.12;65.15;96099.44;4979541;28;20075;-80
2021/05/16 05:11:25;;;;;;;4.53;2.08;;;;;;;13.21;65.24;96100.34;4999688;28;20029;-80
2021/05/16 05:13:50;;;;;;;4.38;1.77;;;;;;;13.22;65.13;96101.88;4988633;28;20036;-79
2021/05/16 05:16:16;;;;;;;3.35;2.08;;;;;;;13.27;64.80;96098.41;4979738;28;20033;-79
2021/05/16 05:18:41;;;;;;;5.85;2.08;;;;;;;13.33;64.92;96099.88;4995388;28;20065;-80
2021/05/16 05:21:08;;;;;;;3.33;2.00;;;;;;;13.36;65.04;96109.00;4988973;28;20044;-79
2021/05/16 05:23:34;;;;;;;4.68;2.17;;;;;;;13.20;65.64;96098.00;4988537;28;20498;-81
2021/05/16 05:25:59;;;;;;;4.25;2.00;;;;;;;12.81;66.48;96094.69;4979784;28;20033;-79
2021/05/16 05:28:25;;;;;;;2.15;1.73;;;;;;;13.00;66.35;96118.16;5013387;28;20033;-78
2021/05/16 05:30:51;;;;;;;3.55;1.60;;;;;;;13.03;65.64;96114.22;4996749;28;20033;-81
2021/05/16 05:33:18;;;;;;;4.93;1.90;;;;;;;13.05;65.82;96109.47;5012722;28;20064;-80
2021/05/16 05:35:44;;;;;;;3.28;1.40;;;;;;;13.09;65.13;96113.06;5005660;28;20029;-82
2021/05/16 05:38:09;;;;;;;2.13;1.13;;;;;;;13.04;64.98;96113.94;4989542;28;20033;-81
2021/05/16 05:40:34;;;;;;;2.95;1.25;;;;;;;13.19;64.95;96110.28;4995114;28;20060;-81
2021/05/16 05:43:01;;;;;;;5.38;1.48;;;;;;;13.07;65.33;96102.91;5012671;28;20499;-81
2021/05/16 05:45:27;;;;;;;3.35;1.35;;;;;;;13.24;64.87;96106.81;4991474;28;20033;-81
2021/05/16 05:47:52;;;;;;;2.95;1.40;;;;;;;13.08;65.08;96111.53;4996664;28;20457;-83
2021/05/16 05:50:17;;;;;;;2.63;1.40;;;;;;;13.15;64.66;96114.53;4979874;28;20037;-81
2021/05/16 05:52:43;;;;;;;3.13;1.30;;;;;;;13.16;64.52;96110.09;5012944;28;20029;-80
2021/05/16 05:55:08;;;;;;;2.80;1.27;;;;;;;13.12;64.83;96109.88;4995854;28;20489;-81
2021/05/16 05:57:34;;;;;;;5.75;1.70;;;;;;;13.00;65.29;96107.72;4979916;28;20060;-83
2021/05/16 05:59:59;;;;;;;2.08;1.00;;;;;;;12.97;65.89;96103.09;4979994;28;20071;-81
2021/05/16 06:02:25;;;;;;;3.08;1.10;;;;;;;13.17;64.63;96095.97;5012821;28;20444;-81
2021/05/16 06:04:50;;;;;;;2.53;1.25;;;;;;;13.28;64.80;96103.34;4970409;28;20034;-80
2021/05/16 06:07:16;;;;;;;2.53;1.10;;;;;;;13.39;64.76;96101.34;4991322;28;20041;-80
2021/05/16 06:09:41;;;;;;;4.63;1.60;;;;;;;13.37;65.31;96100.09;5011138;28;20030;-80
2021/05/16 06:12:09;;;;;;;3.30;1.55;;;;;;;13.59;64.99;96113.31;4996182;28;20163;-79
2021/05/16 06:14:35;;;;;;;3.20;1.50;;;;;;;13.59;65.19;96113.31;4979095;28;20021;-81
2021/05/16 06:17:00;;;;;;;0.98;0.80;;;;;;;13.64;64.85;96107.97;5012032;28;20038;-79
2021/05/16 06:19:26;;;;;;;3.67;1.40;;;;;;;13.57;65.45;96099.75;4983096;28;20033;-80
2021/05/16 06:21:51;;;;;;;7.47;2.35;;;;;;;13.62;65.94;96104.09;5014023;28;20034;-80
2021/05/16 06:24:17;;;;;;;4.18;1.65;;;;;;;13.97;65.44;96101.88;5011463;28;20033;-79
2021/05/16 06:26:43;;;;;;;3.90;1.98;;;;;;;14.12;65.28;96103.38;4995945;28;20281;-80
2021/05/16 06:29:09;;;;;;;5.75;1.85;;;;;;;14.17;65.05;96104.09;4996067;28;20053;-80
2021/05/16 06:31:35;;;;;;;3.50;2.00;;;;;;;14.15;64.59;96094.97;5029293;28;20499;-80
2021/05/16 06:34:01;;;;;;;6.18;2.58;;;;;;;14.23;64.70;96110.75;5004938;28;20029;-80
2021/05/16 06:36:27;;;;;;;5.18;2.10;;;;;;;14.31;64.44;96104.06;5011832;28;20037;-80
2021/05/16 06:38:53;;;;;;;4.97;1.77;;;;;;;14.31;64.24;96109.28;5005398;28;20282;-80
2021/05/16 06:41:19;;;;;;;5.95;1.80;;;;;;;14.47;64.85;96116.81;4979294;28;20315;-80
2021/05/16 06:43:46;;;;;;;4.05;1.67;;;;;;;14.43;64.97;96117.41;5008078;28;20091;-80
2021/05/16 06:46:12;;;;;;;4.55;1.80;;;;;;;14.35;64.39;96106.84;4990615;28;20030;-80
2021/05/16 06:48:37;;;;;;;6.07;1.98;;;;;;;14.51;64.89;96120.38;5005903;28;20030;-80
2021/05/16 06:51:04;;;;;;;5.38;2.17;;;;;;;14.34;65.60;96113.16;5005167;28;20033;-82
2021/05/16 06:53:30;;;;;;;6.85;2.08;;;;;;;14.83;63.70;96116.81;5012247;28;20562;-81
2021/05/16 06:55:56;;;;;;;4.93;1.90;;;;;;;14.88;63.80;96115.94;5008965;28;20041;-82
2021/05/16 06:58:21;;;;;;;8.23;1.77;;;;;;;15.08;63.25;96118.09;4995904;28;20389;-81
2021/05/16 07:00:47;;;;;;;6.38;2.40;;;;;;;14.90;63.33;96109.31;5005884;28;20033;-81
2021/05/16 07:03:12;;;;;;;5.30;1.90;;;;;;;15.13;63.04;96107.47;4977030;28;20722;-79
2021/05/16 07:05:37;;;;;;;5.63;2.00;;;;;;;15.21;61.83;96105.19;4995574;28;20041;-80
2021/05/16 07:08:06;;;;;;;8.85;2.28;;;;;;;15.20;63.85;96109.69;4980094;28;20397;-81
2021/05/16 07:10:32;;;;;;;4.93;1.95;;;;;;;15.32;62.10;96106.50;4970805;28;20501;-80
2021/05/16 07:12:58;;;;;;;7.00;1.70;;;;;;;15.29;62.56;96104.47;4992286;28;20114;-80
2021/05/16 07:15:24;;;;;;;4.40;2.08;;;;;;;15.57;62.15;96104.28;4978735;28;20029;-80
2021/05/16 07:17:50;;;;;;;6.55;2.03;;;;;;;15.26;61.65;96094.59;4976510;28;20036;-80
2021/05/16 07:20:17;;;;;;;4.65;2.40;;;;;;;15.58;62.68;96119.72;5026594;28;20037;-78
2021/05/16 07:22:42;;;;;;;6.07;2.38;;;;;;;15.78;60.71;96110.59;5011045;28;20055;-81
2021/05/16 07:25:08;;;;;;;7.15;2.58;;;;;;;15.89;61.82;96103.97;5003756;28;20083;-79
2021/05/16 07:27:33;;;;;;;4.53;1.70;;;;;;;16.05;61.06;96106.16;4994637;28;20032;-79
2021/05/16 07:29:59;;;;;;;4.45;2.05;;;;;;;16.20;58.28;96115.47;5011111;28;20114;-80
2021/05/16 07:32:24;;;;;;;8.40;2.28;;;;;;;15.90;60.12;96100.28;4987729;28;20036;-79
2021/05/16 07:34:49;;;;;;;6.28;2.17;;;;;;;15.97;60.14;96107.72;5010795;28;20037;-80
2021/05/16 07:37:15;;;;;;;7.60;2.00;;;;;;;15.95;59.60;96101.19;4995027;28;20053;-80
2021/05/16 07:39:40;;;;;;;9.38;2.40;;;;;;;15.93;59.58;96106.00;4985591;28;20036;-79
2021/05/16 07:42:06;;;;;;;6.13;1.90;;;;;;;15.78;59.83;96107.97;4994519;28;20033;-80
2021/05/16 07:44:32;;;;;;;7.38;1.92;;;;;;;15.51;60.58;96114.16;4976536;28;20037;-81
2021/05/16 07:46:57;;;;;;;6.28;2.15;;;;;;;15.55;60.74;96101.97;5010429;28;20029;-80
2021/05/16 07:49:23;;;;;;;4.10;1.92;;;;;;;15.50;60.37;96110.72;4994541;28;20411;-80
2021/05/16 07:51:48;;;;;;;7.00;1.90;;;;;;;15.42;59.91;96110.69;4978723;28;20030;-81
2021/05/16 07:54:13;;;;;;;5.07;2.22;;;;;;;15.69;60.68;96121.00;4994431;28;20033;-80
2021/05/16 07:56:39;;;;;;;6.47;2.85;;;;;;;15.90;61.58;96116.03;4986946;28;20035;-79
2021/05/16 07:59:07;;;;;;;8.57;2.38;;;;;;;16.43;61.69;96116.91;4975972;28;20485;-80
2021/05/16 08:01:32;;;;;;;4.75;1.67;;;;;;;17.02;57.89;96105.94;5008956;28;20038;-81
2021/05/16 08:03:58;;;;;;;5.57;2.45;;;;;;;17.47;57.35;96112.63;4978164;28;20358;-81
2021/05/16 08:06:23;;;;;;;7.35;2.88;;;;;;;17.37;55.19;96112.97;5010978;28;20488;-80
2021/05/16 08:08:49;;;;;;;6.90;2.30;;;;;;;17.31;55.75;96111.63;4965872;28;20505;-80
2021/05/16 08:11:14;;;;;;;6.88;2.30;;;;;;;17.12;55.46;96119.81;5019757;28;20083;-80
2021/05/16 08:13:40;;;;;;;4.53;1.60;;;;;;;16.64;56.35;96106.56;5010410;28;20084;-78
2021/05/16 08:16:05;;;;;;;8.10;2.47;;;;;;;16.52;57.71;96109.03;4991541;28;20448;-79
2021/05/16 08:18:30;;;;;;;5.38;1.80;;;;;;;16.38;56.22;96109.19;4978045;28;20029;-80
2021/05/16 08:20:56;;;;;;;6.43;1.80;;;;;;;16.28;56.26;96115.50;5028634;28;20045;-80
2021/05/16 08:23:22;;;;;;;5.45;1.40;;;;;;;16.34;58.65;96112.72;5010175;28;20029;-80
2021/05/16 08:25:48;;;;;;;5.28;2.10;;;;;;;16.94;56.90;96117.22;4977677;28;20029;-80
2021/05/16 08:28:14;;;;;;;6.97;2.15;;;;;;;17.53;55.48;96113.22;4990279;28;20030;-80
2021/05/16 08:30:40;;;;;;;7.07;2.00;;;;;;;18.10;53.74;96115.50;4997597;28;20047;-80
2021/05/16 08:33:06;;;;;;;7.82;2.13;;;;;;;18.23;53.54;96108.44;4993713;28;20041;-80
2021/05/16 08:35:33;;;;;;;5.10;2.03;;;;;;;17.91;53.37;96107.25;5007278;28;20389;-80
2021/05/16 08:37:58;;;;;;;4.88;1.70;;;;;;;17.95;54.22;96102.88;4980913;28;20100;-79
2021/05/16 08:40:23;;;;;;;4.25;1.88;;;;;;;17.78;53.44;96101.06;5013898;28;20056;-79
2021/05/16 08:42:49;;;;;;;4.63;1.30;;;;;;;17.61;53.45;96109.78;5017533;28;20021;-79
2021/05/16 08:45:15;;;;;;;5.82;1.90;;;;;;;17.38;52.09;96101.38;4989216;28;20026;-80
2021/05/16 08:47:43;;;;;;;11.18;2.78;;;;;;;17.40;55.20;96107.84;5013615;28;20354;-79
2021/05/16 08:50:11;;;;;;;5.03;2.17;;;;;;;17.38;54.67;96104.78;4974930;28;20029;-79
2021/05/16 08:52:37;;;;;;;5.82;1.60;;;;;;;17.90;53.27;96106.44;4991538;28;20374;-79
2021/05/16 08:55:04;;;;;;;5.88;1.60;;;;;;;18.41;53.42;96105.69;5005622;28;20473;-79
2021/05/16 08:57:29;;;;;;;5.35;1.38;;;;;;;18.93;53.44;96097.38;4980542;28;20022;-80
2021/05/16 09:00:13;;;;;;;7.88;1.85;;;;;;;18.84;49.71;96104.63;4964370;28;20543;-79
2021/05/16 09:03:09;;;;;;;5.18;1.17;;;;;;;18.49;48.99;96118.81;5001462;28;20022;-79
2021/05/16 09:05:46;;;;;;;4.38;1.40;;;;;;;18.40;49.94;96118.09;5013961;28;20025;-79
2021/05/16 09:08:16;;;;;;;5.75;1.65;;;;;;;17.88;51.76;96118.41;4995622;28;20026;-80
2021/05/16 09:10:43;;;;;;;6.30;1.60;;;;;;;17.89;53.46;96114.66;4985153;28;20029;-79
2021/05/16 09:13:16;;;;;;;5.72;2.40;;;;;;;18.44;52.63;96119.00;4981017;28;20096;-79
2021/05/16 09:15:44;;;;;;;7.78;2.13;;;;;;;18.64;52.91;96106.13;4997297;28;20520;-79
2021/05/16 09:18:10;;;;;;;3.50;1.80;;;;;;;18.94;49.82;96100.81;4991040;28;20037;-78
2021/05/16 09:20:35;;;;;;;3.00;1.75;;;;;;;19.44;46.22;96102.47;5014131;28;20441;-78
2021/05/16 09:23:01;;;;;;;6.40;1.40;;;;;;;19.64;47.86;96100.84;5007359;28;20068;-78
2021/05/16 09:25:30;;;;;;;6.95;1.73;;;;;;;19.02;45.69;96103.38;4965177;28;20030;-78
2021/05/16 09:28:16;;;;;;;6.13;1.60;;;;;;;18.28;49.85;96113.53;5006359;28;20041;-76
2021/05/16 09:30:42;;;;;;;5.38;1.40;;;;;;;18.46;48.34;96103.63;4974625;28;20075;-78
2021/05/16 09:33:09;;;;;;;7.22;1.40;;;;;;;18.16;50.05;96113.44;4962440;28;20136;-78
2021/05/16 09:35:36;;;;;;;4.40;1.45;;;;;;;17.93;49.54;96110.31;4980227;28;20553;-79
2021/05/16 09:38:21;;;;;;;4.40;1.20;;;;;;;17.25;50.27;96118.13;4960908;28;20432;-78
2021/05/16 09:40:48;;;;;;;;;;;;;;;16.88;54.67;96115.06;4961729;28;20124;-78
2021/05/16 09:43:22;;;;;;;4.50;1.73;;;;;;;17.09;52.52;96123.09;5011008;28;19920;-77
2021/05/16 09:45:48;;;;;;;5.25;2.35;;;;;;;17.36;50.85;96120.09;4998645;28;20065;-78
2021/05/16 09:48:28;;;;;;;3.00;1.67;;;;;;;17.03;55.62;96120.63;4998929;28;20254;-79
2021/05/16 09:51:17;;;;;;;3.72;1.05;;;;;;;17.74;53.38;96124.63;4971071;28;20041;-78
2021/05/16 09:53:54;;;;;;;2.08;1.05;;;;;;;18.77;49.59;96120.94;4971859;28;20362;-78
2021/05/16 09:56:28;;;;;;;3.75;1.27;;;;;;;19.05;50.05;96121.16;5013124;28;20802;-79
2021/05/16 09:58:55;;;;;;;3.72;1.50;;;;;;;19.65;48.49;96121.66;4989072;28;20029;-78
2021/05/16 10:01:22;;;;;;;4.28;1.35;;;;;;;20.40;46.88;96114.47;4997267;28;20022;-78
2021/05/16 10:03:49;;;;;;;5.85;1.48;;;;;;;20.52;46.60;96118.97;4981124;28;20396;-77
2021/05/16 10:06:19;;;;;;;4.20;1.80;;;;;;;20.96;45.68;96111.13;5010434;28;20086;-78
2021/05/16 10:08:47;;;;;;;5.45;1.75;;;;;;;20.69;46.18;96110.78;4998119;28;20105;-78
2021/05/16 10:11:14;;;;;;;5.75;1.13;;;;;;;20.39;44.38;96094.41;4981404;28;20431;-79
2021/05/16 10:13:47;;;;;;;2.38;1.17;;;;;;;20.17;44.52;96099.09;4964539;28;20056;-79
2021/05/16 10:16:15;;;;;;;4.43;1.80;;;;;;;19.98;44.89;96086.44;4997066;28;20408;-77
2021/05/16 10:18:40;;;;;;;4.95;1.17;;;;;;;20.00;45.16;96086.88;4977264;28;20026;-78
2021/05/16 10:21:06;;;;;;;5.57;1.63;;;;;;;19.67;46.33;96088.84;5007249;28;20542;-78
2021/05/16 10:23:37;;;;;;;4.72;1.45;;;;;;;18.78;47.54;96085.56;4974469;28;20464;-78
2021/05/16 10:26:16;;;;;;;6.65;1.50;;;;;;;18.88;48.97;96090.47;4976919;28;20046;-78
2021/05/16 10:29:02;;;;;;;7.90;2.08;;;;;;;18.85;49.47;96090.31;4991186;28;20231;-78
2021/05/16 10:31:53;;;;;;;4.57;1.73;;;;;;;18.82;49.08;96086.47;4991147;28;20085;-77
2021/05/16 10:34:27;;;;;;;4.00;1.30;;;;;;;18.67;48.71;96071.97;5014127;28;20413;-78
2021/05/16 10:36:53;;;;;;;8.07;2.20;;;;;;;18.36;48.31;96079.53;4999321;28;20068;-79
2021/05/16 10:39:43;;;;;;;5.35;2.25;;;;;;;17.90;50.07;96079.34;4994170;28;20486;-78
2021/05/16 10:42:14;;;;;;;5.30;1.60;;;;;;;17.96;48.76;96075.44;4998827;28;20026;-78
2021/05/16 10:45:07;;;;;;;3.00;1.20;;;;;;;17.79;50.64;96079.69;4973608;28;20029;-78
2021/05/16 10:47:45;;;;;;;5.38;1.50;;;;;;;18.21;48.54;96076.38;4966679;28;20493;-78
2021/05/16 10:50:13;;;;;;;8.52;2.55;;;;;;;18.69;48.95;96064.50;5004986;28;20488;-78
2021/05/16 10:52:39;;;;;;;2.75;1.17;;;;;;;19.34;48.29;96065.94;4980759;28;20418;-78
2021/05/16 10:55:06;;;;;;;5.05;1.95;;;;;;;19.71;45.55;96055.41;4975966;28;20109;-78
2021/05/16 10:57:37;;;;;;;4.38;1.58;;;;;;;20.01;43.93;96064.66;4996863;28;20026;-78
2021/05/16 11:00:30;;;;;;;3.80;1.75;;;;;;;20.26;44.61;96054.03;4995080;28;20588;-78
2021/05/16 11:02:59;;;;;;;4.35;1.17;;;;;;;20.71;41.93;96053.00;5008105;28;20090;-77
2021/05/16 11:05:50;;;;;;;4.57;1.30;;;;;;;20.55;42.96;96050.28;5006151;28;20048;-78
2021/05/16 11:08:16;;;;;;;4.53;1.20;;;;;;;20.66;44.14;96040.03;5000098;28;20034;-78
2021/05/16 11:10:43;;;;;;;4.45;1.55;;;;;;;20.36;43.25;96037.69;5028829;28;20025;-78
2021/05/16 11:13:16;;;;;;;4.07;1.20;;;;;;;20.05;44.81;96043.63;5006308;28;20038;-78
2021/05/16 11:15:53;;;;;;;4.80;1.42;;;;;;;19.65;44.76;96041.63;4993910;28;20037;-79
2021/05/16 11:18:20;;;;;;;4.22;1.20;;;;;;;19.75;44.58;96025.38;4982721;28;20030;-78
2021/05/16 11:20:56;;;;;;;4.75;1.00;;;;;;;19.44;45.73;96033.81;4971083;28;20025;-78
2021/05/16 11:23:23;;;;;;;3.97;1.40;;;;;;;19.77;44.32;96020.53;4983893;28;20343;-78
2021/05/16 11:25:57;;;;;;;3.50;1.27;;;;;;;19.55;46.80;96024.38;4965763;28;20029;-78
2021/05/16 11:28:24;;;;;;;4.25;1.33;;;;;;;19.87;44.71;96024.59;5004430;28;20396;-78
2021/05/16 11:30:50;;;;;;;5.30;1.40;;;;;;;19.96;42.30;96021.81;5012376;28;20289;-78
2021/05/16 11:33:32;;;;;;;4.65;1.60;;;;;;;19.01;43.52;96012.13;4995343;28;20028;-79
2021/05/16 11:36:05;;;;;;;4.43;1.50;;;;;;;19.23;44.86;96016.22;4969537;28;20112;-78